createdAt,value
2024-04-30T03:56:19.245Z,6.13
2024-04-30T03:58:45.988Z,5.10
2024-04-30T04:01:12.770Z,5.07
2024-04-30T04:03:39.889Z,5.33
2024-04-30T04:06:06.852Z,4.63
2024-04-30T04:08:33.587Z,4.63
2024-04-30T04:11:19.234Z,4.57
2024-04-30T04:14:04.847Z,4.60
2024-04-30T04:16:31.634Z,5.00
2024-04-30T04:18:58.426Z,5.13
2024-04-30T04:21:25.145Z,5.23
2024-04-30T04:23:52.195Z,5.27
2024-04-30T04:26:19.035Z,5.33
2024-04-30T04:28:45.735Z,5.27
2024-04-30T04:31:12.565Z,4.90
2024-04-30T04:33:39.265Z,4.80
2024-04-30T04:36:06.194Z,4.33
2024-04-30T04:38:32.868Z,4.70
2024-04-30T04:40:59.609Z,5.23
2024-04-30T04:43:26.342Z,5.43
2024-04-30T04:45:53.070Z,5.37
2024-04-30T04:48:19.875Z,4.93
2024-04-30T04:50:46.764Z,6.03
2024-04-30T04:53:13.488Z,5.83
2024-04-30T04:55:40.852Z,4.93
2024-04-30T04:58:07.652Z,5.20
2024-04-30T05:00:34.417Z,4.97
2024-04-30T05:03:01.156Z,4.67
2024-04-30T05:05:27.854Z,4.67
2024-04-30T05:07:54.747Z,4.40
2024-04-30T05:10:21.550Z,4.67
2024-04-30T05:12:48.378Z,4.73
2024-04-30T05:15:15.266Z,4.97
2024-04-30T05:17:42.054Z,4.60
2024-04-30T05:20:09.238Z,4.33
2024-04-30T05:22:37.467Z,4.27
2024-04-30T05:25:04.489Z,3.90
2024-04-30T05:27:31.304Z,4.10
2024-04-30T05:29:58.346Z,4.40
2024-04-30T05:32:29.701Z,4.00
2024-04-30T05:34:59.798Z,4.97
2024-04-30T05:37:26.956Z,3.97
2024-04-30T05:39:53.723Z,4.27
2024-04-30T05:42:20.408Z,3.90
2024-04-30T05:44:47.235Z,4.93
2024-04-30T05:47:14.056Z,4.53
2024-04-30T05:49:40.813Z,5.20
2024-04-30T05:52:07.556Z,4.30
2024-04-30T05:54:34.261Z,3.77
2024-04-30T05:57:01.028Z,4.43
2024-04-30T05:59:28.060Z,4.50
2024-04-30T06:01:54.859Z,4.47
2024-04-30T06:04:21.713Z,4.63
2024-04-30T06:06:51.576Z,4.30
2024-04-30T06:09:18.308Z,4.20
2024-04-30T06:11:45.043Z,4.13
2024-04-30T06:14:11.776Z,4.10
2024-04-30T06:16:38.686Z,4.90
2024-04-30T06:19:05.626Z,4.47
2024-04-30T06:21:37.853Z,4.37
2024-04-30T06:24:06.314Z,5.07
2024-04-30T06:26:33.082Z,5.37
2024-04-30T06:29:02.977Z,6.17
2024-04-30T06:31:29.796Z,6.00
2024-04-30T06:33:57.041Z,6.57
2024-04-30T06:36:23.871Z,5.77
2024-04-30T06:38:50.598Z,6.17
2024-04-30T06:41:18.288Z,6.03
2024-04-30T06:43:45.694Z,6.20
2024-04-30T06:46:12.598Z,5.27
2024-04-30T06:48:39.487Z,6.23
2024-04-30T06:51:06.276Z,6.67
2024-04-30T06:53:33.011Z,5.30
2024-04-30T06:55:59.731Z,5.47
2024-04-30T06:58:26.465Z,5.17
2024-04-30T07:00:53.244Z,4.83
2024-04-30T07:03:19.978Z,4.70
2024-04-30T07:05:46.717Z,5.40
2024-04-30T07:08:13.555Z,4.70
2024-04-30T07:10:40.371Z,4.60
2024-04-30T07:13:08.728Z,4.47
2024-04-30T07:15:35.681Z,3.63
2024-04-30T07:18:03.528Z,4.10
2024-04-30T07:20:30.281Z,4.43
2024-04-30T07:22:56.979Z,4.50
2024-04-30T07:25:23.760Z,4.60
2024-04-30T07:27:50.532Z,4.87
2024-04-30T07:30:17.249Z,4.90
2024-04-30T07:32:44.051Z,4.43
2024-04-30T07:35:10.872Z,5.57
2024-04-30T07:37:37.778Z,5.60
2024-04-30T07:40:04.913Z,6.57
2024-04-30T07:42:31.692Z,5.40
2024-04-30T07:44:58.433Z,5.40
2024-04-30T07:47:25.330Z,5.57
2024-04-30T07:49:52.163Z,5.60
2024-04-30T07:52:19.084Z,5.60
2024-04-30T07:54:46.833Z,5.90
2024-04-30T07:57:13.832Z,6.10
2024-04-30T07:59:40.568Z,5.93
2024-04-30T08:02:09.505Z,5.20
2024-04-30T08:04:37.006Z,5.73
2024-04-30T08:07:04.079Z,6.27
2024-04-30T08:09:30.790Z,4.77
2024-04-30T08:11:59.853Z,4.93
2024-04-30T08:14:26.958Z,5.47
2024-04-30T08:16:53.788Z,4.40
2024-04-30T08:19:20.601Z,5.03
2024-04-30T08:21:47.343Z,3.90
2024-04-30T08:24:14.422Z,4.07
2024-04-30T08:26:41.151Z,4.30
2024-04-30T08:29:07.877Z,3.53
2024-04-30T08:31:35.261Z,3.50
2024-04-30T08:34:02.128Z,3.07
2024-04-30T08:36:31.151Z,3.03
2024-04-30T08:38:59.881Z,2.70
2024-04-30T08:41:26.907Z,3.23
2024-04-30T08:43:53.875Z,3.20
2024-04-30T08:46:20.764Z,2.77
2024-04-30T08:48:50.069Z,3.03
2024-04-30T08:51:16.956Z,2.70
2024-04-30T08:53:44.234Z,2.67
2024-04-30T08:56:13.082Z,3.53
2024-04-30T08:58:40.317Z,3.77
2024-04-30T09:01:09.376Z,3.73
2024-04-30T09:03:37.517Z,3.20
2024-04-30T09:06:05.992Z,3.20
2024-04-30T09:08:32.916Z,4.17
2024-04-30T09:11:00.194Z,3.73
2024-04-30T09:13:34.275Z,3.63
2024-04-30T09:16:01.527Z,3.50
2024-04-30T09:18:28.458Z,3.43
2024-04-30T09:20:57.222Z,4.10
2024-04-30T09:23:31.544Z,4.07
2024-04-30T09:25:59.058Z,3.50
2024-04-30T09:28:27.642Z,3.97
2024-04-30T09:31:01.324Z,3.67
2024-04-30T09:33:29.255Z,3.47
2024-04-30T09:36:04.173Z,3.63
2024-04-30T09:38:36.686Z,4.40
2024-04-30T09:41:04.063Z,3.30
2024-04-30T09:43:31.168Z,3.87
2024-04-30T09:45:58.794Z,3.73
2024-04-30T09:48:26.590Z,3.50
2024-04-30T09:50:54.385Z,4.07
2024-04-30T09:53:21.927Z,4.30
2024-04-30T09:55:49.430Z,3.83
2024-04-30T09:58:16.704Z,3.70
2024-04-30T10:00:43.695Z,3.60
2024-04-30T10:03:13.329Z,3.47
2024-04-30T10:05:53.196Z,3.33
2024-04-30T10:08:21.461Z,3.50
2024-04-30T10:10:48.265Z,4.03
2024-04-30T10:13:23.682Z,3.67
2024-04-30T10:15:50.542Z,3.93
2024-04-30T10:18:24.427Z,3.67
2024-04-30T10:20:51.285Z,3.30
2024-04-30T10:23:31.029Z,3.50
2024-04-30T10:26:04.883Z,3.10
2024-04-30T10:28:32.596Z,2.93
2024-04-30T10:31:10.407Z,3.00
2024-04-30T10:33:38.680Z,3.43
2024-04-30T10:36:08.155Z,3.30
2024-04-30T10:38:34.994Z,3.10
2024-04-30T10:41:06.134Z,3.53
2024-04-30T10:43:33.399Z,3.10
2024-04-30T10:46:16.985Z,3.37
2024-04-30T10:48:48.280Z,3.17
2024-04-30T10:51:15.076Z,2.70
2024-04-30T10:53:42.524Z,3.27
2024-04-30T10:56:11.273Z,2.60
2024-04-30T10:58:38.125Z,2.97
2024-04-30T11:01:05.248Z,2.80
2024-04-30T11:03:34.537Z,2.97
2024-04-30T11:06:02.109Z,2.70
2024-04-30T11:08:29.024Z,4.20
2024-04-30T11:11:07.653Z,3.83
2024-04-30T11:13:34.590Z,2.60
2024-04-30T11:16:07.941Z,2.77
2024-04-30T11:18:38.316Z,3.07
2024-04-30T11:21:05.614Z,3.13
2024-04-30T11:23:32.343Z,2.40
2024-04-30T11:26:00.217Z,3.30
2024-04-30T11:28:28.418Z,2.47
2024-04-30T11:30:55.261Z,3.40
2024-04-30T11:33:22.022Z,3.10
2024-04-30T11:35:48.769Z,3.00
2024-04-30T11:38:15.667Z,3.30
2024-04-30T11:40:42.497Z,3.07
2024-04-30T11:43:09.290Z,3.20
2024-04-30T11:45:36.029Z,3.07
2024-04-30T11:48:03.066Z,2.80
2024-04-30T11:50:30.045Z,3.07
2024-04-30T11:52:57.014Z,3.30
2024-04-30T11:55:24.002Z,3.30
2024-04-30T11:57:50.845Z,2.83
2024-04-30T12:00:17.921Z,3.10
2024-04-30T12:02:44.707Z,3.23
2024-04-30T12:05:12.839Z,2.70
2024-04-30T12:07:41.024Z,2.67
2024-04-30T12:10:10.455Z,2.93
2024-04-30T12:12:38.792Z,3.30
2024-04-30T12:15:06.111Z,3.03
2024-04-30T12:17:33.115Z,2.63
2024-04-30T12:19:59.953Z,3.20
2024-04-30T12:22:26.780Z,2.90
2024-04-30T12:24:53.621Z,2.70
2024-04-30T12:27:20.380Z,3.50
2024-04-30T12:29:50.166Z,3.50
2024-04-30T12:32:18.056Z,4.20
2024-04-30T12:34:44.942Z,3.17
2024-04-30T12:37:12.881Z,3.00
2024-04-30T12:39:40.065Z,3.67
2024-04-30T12:42:07.064Z,3.03
2024-04-30T12:44:36.975Z,3.23
2024-04-30T12:47:03.995Z,2.93
2024-04-30T12:49:30.734Z,3.47
2024-04-30T12:51:57.612Z,2.60
2024-04-30T12:54:24.446Z,3.50
2024-04-30T12:56:51.227Z,2.90
2024-04-30T12:59:17.953Z,4.40
2024-04-30T13:01:45.472Z,4.10
2024-04-30T13:04:12.343Z,4.50
2024-04-30T13:06:39.563Z,3.73
2024-04-30T13:09:06.458Z,3.53
2024-04-30T13:11:33.846Z,7.30
2024-04-30T13:14:00.757Z,4.57
2024-04-30T13:16:27.559Z,4.03
2024-04-30T13:18:54.366Z,4.63
2024-04-30T13:21:21.212Z,4.40
2024-04-30T13:23:48.140Z,3.63
2024-04-30T13:26:14.933Z,3.57
2024-04-30T13:28:41.879Z,3.80
2024-04-30T13:31:08.721Z,3.00
2024-04-30T13:33:36.052Z,3.10
2024-04-30T13:36:02.899Z,3.13
2024-04-30T13:38:29.664Z,3.37
2024-04-30T13:40:56.419Z,3.50
2024-04-30T13:43:24.483Z,3.40
2024-04-30T13:45:51.706Z,3.20
2024-04-30T13:48:19.287Z,3.40
2024-04-30T13:50:46.345Z,3.67
2024-04-30T13:53:13.123Z,3.00
2024-04-30T13:55:39.949Z,2.87
2024-04-30T13:58:06.922Z,3.10
2024-04-30T14:00:33.851Z,3.60
2024-04-30T14:03:00.779Z,2.97
2024-04-30T14:05:27.689Z,4.23
2024-04-30T14:07:54.531Z,3.43
2024-04-30T14:10:21.404Z,3.30
2024-04-30T14:12:49.290Z,4.03
2024-04-30T14:15:16.535Z,3.53
2024-04-30T14:17:43.631Z,3.87
2024-04-30T14:20:10.552Z,3.47
2024-04-30T14:22:37.388Z,3.63
2024-04-30T14:25:04.320Z,3.43
2024-04-30T14:27:31.060Z,3.53
2024-04-30T14:29:57.805Z,3.03
2024-04-30T14:32:26.544Z,3.00
2024-04-30T14:34:53.495Z,3.47
2024-04-30T14:37:20.328Z,2.93
2024-04-30T14:39:47.098Z,3.13
2024-04-30T14:42:13.830Z,3.47
2024-04-30T14:44:40.601Z,2.77
2024-04-30T14:47:07.357Z,3.63
2024-04-30T14:49:34.174Z,4.63
2024-04-30T14:52:00.961Z,3.70
2024-04-30T14:54:27.662Z,3.57
2024-04-30T14:56:55.627Z,3.73
2024-04-30T14:59:22.891Z,3.93
2024-04-30T15:01:49.848Z,3.50
2024-04-30T15:04:16.816Z,3.93
2024-04-30T15:06:43.788Z,4.20
2024-04-30T15:09:11.011Z,4.27
2024-04-30T15:11:38.114Z,3.50
2024-04-30T15:14:07.856Z,4.07
2024-04-30T15:16:35.175Z,3.30
2024-04-30T15:19:02.236Z,3.17
2024-04-30T15:21:29.262Z,3.30
2024-04-30T15:23:56.060Z,3.60
2024-04-30T15:26:22.798Z,3.53
2024-04-30T15:28:49.664Z,4.20
2024-04-30T15:31:17.823Z,3.50
2024-04-30T15:33:44.670Z,3.23
2024-04-30T15:36:12.596Z,3.53
2024-04-30T15:38:39.812Z,4.10
2024-04-30T15:41:06.679Z,4.10
2024-04-30T15:43:34.731Z,3.70
2024-04-30T15:46:01.880Z,2.90
2024-04-30T15:48:28.775Z,3.23
2024-04-30T15:50:55.748Z,3.47
2024-04-30T15:53:22.841Z,3.13
2024-04-30T15:56:04.917Z,3.47
2024-04-30T15:58:36.522Z,3.70
2024-04-30T16:01:03.516Z,3.37
2024-04-30T16:03:30.480Z,3.77
2024-04-30T16:05:57.310Z,3.70
2024-04-30T16:08:24.065Z,3.30
2024-04-30T16:10:50.810Z,3.77
2024-04-30T16:13:19.972Z,3.43
2024-04-30T16:15:48.143Z,3.90
2024-04-30T16:18:17.078Z,3.23
2024-04-30T16:20:43.964Z,4.07
2024-04-30T16:23:10.732Z,3.67
2024-04-30T16:25:38.998Z,3.10
2024-04-30T16:28:09.320Z,4.27
2024-04-30T16:30:36.039Z,3.83
2024-04-30T16:33:02.979Z,3.20
2024-04-30T16:35:29.770Z,3.47
2024-04-30T16:37:56.526Z,3.33
2024-04-30T16:40:23.324Z,2.87
2024-04-30T16:42:50.074Z,3.53
2024-04-30T16:45:16.902Z,3.80
2024-04-30T16:47:43.695Z,3.97
2024-04-30T16:50:11.175Z,4.33
2024-04-30T16:52:37.918Z,4.00
2024-04-30T16:55:04.998Z,3.80
2024-04-30T16:57:31.982Z,3.97
2024-04-30T16:59:58.915Z,4.07
2024-04-30T17:02:25.660Z,3.33
2024-04-30T17:04:52.472Z,4.40
2024-04-30T17:07:19.344Z,3.03
2024-04-30T17:09:46.188Z,3.80
2024-04-30T17:12:13.033Z,3.67
2024-04-30T17:14:40.158Z,3.77
2024-04-30T17:17:07.432Z,3.70
2024-04-30T17:19:34.314Z,3.50
2024-04-30T17:22:01.137Z,3.43
2024-04-30T17:24:27.908Z,3.93
2024-04-30T17:26:54.667Z,4.27
2024-04-30T17:29:21.382Z,4.00
2024-04-30T17:31:48.180Z,4.70
2024-04-30T17:34:15.169Z,3.27
2024-04-30T17:36:48.319Z,4.13
2024-04-30T17:39:17.342Z,3.43
2024-04-30T17:41:45.055Z,3.87
2024-04-30T17:44:12.215Z,6.23
2024-04-30T17:46:43.375Z,58.90
2024-04-30T17:49:13.676Z,120.97
2024-04-30T17:51:43.805Z,47.43
2024-04-30T17:54:10.598Z,32.67
2024-04-30T17:56:38.244Z,25.73
2024-04-30T17:59:04.954Z,14.17
2024-04-30T18:01:31.745Z,8.00
2024-04-30T18:03:58.696Z,6.73
2024-04-30T18:06:27.295Z,6.73
2024-04-30T18:08:58.019Z,5.70
2024-04-30T18:11:30.001Z,5.27
2024-04-30T18:13:57.200Z,5.20
2024-04-30T18:16:25.051Z,4.40
2024-04-30T18:18:52.374Z,8.10
2024-04-30T18:21:20.542Z,13.20
2024-04-30T18:23:47.604Z,6.10
2024-04-30T18:26:15.081Z,6.77
2024-04-30T18:28:55.796Z,9.10
2024-04-30T18:31:25.063Z,18.20
2024-04-30T18:33:55.939Z,34.47
2024-04-30T18:36:25.580Z,48.30
2024-04-30T18:38:52.723Z,84.20
2024-04-30T18:41:25.097Z,35.50
2024-04-30T18:43:57.029Z,26.67
2024-04-30T18:46:23.979Z,19.40
2024-04-30T18:48:51.360Z,21.93
2024-04-30T18:51:18.734Z,32.67
2024-04-30T18:53:45.793Z,20.43
2024-04-30T18:56:18.735Z,15.50
2024-04-30T18:58:49.097Z,8.50
2024-04-30T19:01:16.703Z,8.17
